createdAt,value
2018-02-06T00:00:05.880Z,54.918
2018-02-06T00:01:11.036Z,54.6696
2018-02-06T00:02:16.519Z,55.169
2018-02-06T00:03:21.995Z,55.5891
2018-02-06T00:04:28.283Z,55.169
2018-02-06T00:05:33.754Z,55.3381
2018-02-06T00:06:39.015Z,55.3381
2018-02-06T00:07:44.480Z,55.5891
2018-02-06T00:08:49.979Z,57.2617
2018-02-06T00:09:55.400Z,56.2576
2018-02-06T00:11:00.870Z,55.5891
2018-02-06T00:12:05.488Z,56.2576
2018-02-06T00:13:10.825Z,56.7597
2018-02-06T00:14:16.296Z,57.0107
2018-02-06T00:15:21.759Z,57.0107
2018-02-06T00:16:41.922Z,57.2617
2018-02-06T00:17:46.812Z,56.5086
2018-02-06T00:18:52.403Z,57.7637
2018-02-06T00:19:57.322Z,57.9328
2018-02-06T00:21:02.514Z,57.5127
2018-02-06T00:22:08.375Z,57.5127
2018-02-06T00:23:13.549Z,58.1839
2018-02-06T00:24:18.469Z,58.4349
2018-02-06T00:25:24.188Z,58.1839
2018-02-06T00:26:29.369Z,57.9328
2018-02-06T00:27:35.331Z,58.6859
2018-02-06T00:28:40.544Z,58.9369
2018-02-06T00:29:45.159Z,58.4349
2018-02-06T00:30:50.883Z,58.9369
2018-02-06T00:31:56.074Z,58.9369
2018-02-06T00:33:01.533Z,59.69
2018-02-06T00:34:06.660Z,59.941
2018-02-06T00:35:12.173Z,60.8632
2018-02-06T00:36:17.653Z,60.3611
2018-02-06T00:37:23.435Z,60.3611
2018-02-06T00:38:28.337Z,61.1142
2018-02-06T00:39:33.491Z,61.1142
2018-02-06T00:40:38.422Z,61.3652
2018-02-06T00:41:43.629Z,62.0337
2018-02-06T00:42:49.498Z,62.2847
2018-02-06T00:43:54.975Z,62.0337
2018-02-06T00:45:00.146Z,62.2847
2018-02-06T00:46:05.681Z,61.3652
2018-02-06T00:47:10.549Z,62.0337
2018-02-06T00:48:16.009Z,63.0405
2018-02-06T00:49:21.172Z,63.0405
2018-02-06T00:50:26.358Z,62.7894
2018-02-06T00:51:32.192Z,63.4579
2018-02-06T00:52:37.760Z,63.4579
2018-02-06T00:53:42.984Z,63.96
2018-02-06T00:54:47.731Z,63.709
2018-02-06T00:55:52.924Z,64.211
2018-02-06T00:56:58.397Z,63.96
2018-02-06T00:58:04.221Z,64.462
2018-02-06T00:59:09.118Z,63.96
2018-02-06T01:00:14.023Z,64.211
2018-02-06T01:01:19.733Z,64.462
2018-02-06T01:02:24.923Z,65.6352
2018-02-06T01:03:30.540Z,65.2177
2018-02-06T01:04:35.731Z,64.9667
2018-02-06T01:05:40.354Z,65.4687
2018-02-06T01:06:45.511Z,65.4687
2018-02-06T01:07:50.705Z,65.2177
2018-02-06T01:08:56.159Z,65.2177
2018-02-06T01:10:02.074Z,65.4687
2018-02-06T01:11:07.297Z,66.6419
2018-02-06T01:12:12.767Z,66.893
2018-02-06T01:13:18.487Z,65.6352
2018-02-06T01:14:23.677Z,65.8862
2018-02-06T01:15:29.026Z,65.8862
2018-02-06T01:16:34.489Z,66.6419
2018-02-06T01:17:39.673Z,67.395
2018-02-06T01:18:45.108Z,66.6419
2018-02-06T01:19:50.626Z,66.3909
2018-02-06T01:20:56.113Z,66.6419
2018-02-06T01:22:01.689Z,67.144
2018-02-06T01:23:07.160Z,67.897
2018-02-06T01:24:12.658Z,67.897
2018-02-06T01:25:18.196Z,67.144
2018-02-06T01:26:22.791Z,68.3172
2018-02-06T01:27:28.476Z,67.144
2018-02-06T01:28:33.929Z,68.0661
2018-02-06T01:29:39.385Z,67.646
2018-02-06T01:30:45.353Z,68.3172
2018-02-06T01:31:50.812Z,68.3172
2018-02-06T01:32:56.267Z,68.5682
2018-02-06T01:34:02.034Z,67.897
2018-02-06T01:35:06.648Z,68.5682
2018-02-06T01:36:12.106Z,68.8192
2018-02-06T01:37:17.883Z,68.8192
2018-02-06T01:38:22.509Z,68.5682
2018-02-06T01:39:27.990Z,69.0702
2018-02-06T01:40:33.218Z,68.8192
2018-02-06T01:41:38.396Z,69.0702
2018-02-06T01:42:44.085Z,68.5682
2018-02-06T01:43:49.263Z,70.077
2018-02-06T01:44:54.743Z,69.8259
2018-02-06T01:45:59.897Z,70.328
2018-02-06T01:47:05.085Z,70.328
2018-02-06T01:48:10.278Z,69.5749
2018-02-06T01:49:15.997Z,69.5749
2018-02-06T01:50:21.184Z,70.9146
2018-02-06T01:51:41.863Z,70.077
2018-02-06T01:52:46.477Z,70.328
2018-02-06T01:53:50.810Z,70.7481
2018-02-06T01:54:56.158Z,70.7481
2018-02-06T01:56:01.386Z,71.1656
2018-02-06T01:57:06.286Z,72.1723
2018-02-06T01:58:11.824Z,72.1723
2018-02-06T01:59:16.998Z,71.1656
2018-02-06T02:00:22.187Z,71.9213
2018-02-06T02:01:27.774Z,72.4233
2018-02-06T02:02:32.676Z,71.6703
2018-02-06T02:03:38.240Z,72.1723
2018-02-06T02:04:43.696Z,72.1723
2018-02-06T02:05:49.150Z,72.9254
2018-02-06T02:06:54.876Z,72.9254
2018-02-06T02:08:00.356Z,73.3455
2018-02-06T02:09:05.348Z,73.3455
2018-02-06T02:10:10.221Z,73.0945
2018-02-06T02:11:15.415Z,73.0945
2018-02-06T02:12:20.869Z,73.0945
2018-02-06T02:13:26.078Z,73.5965
2018-02-06T02:14:31.261Z,73.8475
2018-02-06T02:15:37.618Z,74.1012
2018-02-06T02:16:42.789Z,73.5965
2018-02-06T02:17:48.250Z,73.3455
2018-02-06T02:18:54.083Z,73.8475
2018-02-06T02:19:59.589Z,73.8475
2018-02-06T02:21:04.788Z,74.3522
2018-02-06T02:22:10.255Z,74.3522
2018-02-06T02:23:15.709Z,74.3522
2018-02-06T02:24:20.882Z,74.3522
2018-02-06T02:25:26.084Z,74.6032
2018-02-06T02:26:31.546Z,74.6032
2018-02-06T02:27:37.450Z,74.3522
2018-02-06T02:28:42.927Z,74.8543
2018-02-06T02:29:48.390Z,75.7764
2018-02-06T02:30:53.839Z,74.8543
2018-02-06T02:31:59.329Z,75.7764
2018-02-06T02:33:04.532Z,75.3589
2018-02-06T02:34:10.344Z,75.5254
2018-02-06T02:35:15.523Z,75.1053
2018-02-06T02:36:20.993Z,75.5254
2018-02-06T02:37:41.557Z,76.5321
2018-02-06T02:38:47.030Z,75.3589
2018-02-06T02:39:52.468Z,75.1053
2018-02-06T02:40:57.938Z,76.2811
2018-02-06T04:38:58.653Z,86.8504
2018-02-06T04:40:03.663Z,87.6061
2018-02-06T04:41:08.582Z,87.104
2018-02-06T04:42:13.769Z,86.8504
2018-02-06T04:43:19.502Z,87.104
2018-02-06T04:44:24.415Z,88.1108
2018-02-06T04:45:30.342Z,87.8598
2018-02-06T04:46:35.810Z,87.104
2018-02-06T04:47:41.019Z,87.104
2018-02-06T04:48:47.050Z,87.8598
2018-02-06T04:49:52.528Z,88.5309
2018-02-06T04:50:57.713Z,88.5309
2018-02-06T04:52:03.215Z,88.1108
2018-02-06T04:53:08.147Z,88.7819
2018-02-06T04:54:13.338Z,88.2772
2018-02-06T04:55:18.770Z,88.7819
2018-02-06T04:56:24.263Z,88.5309
2018-02-06T04:57:29.697Z,88.5309
2018-02-06T04:58:35.163Z,88.1108
2018-02-06T04:59:40.371Z,88.1108
2018-02-06T05:00:46.103Z,88.5309
2018-02-06T05:01:51.571Z,87.8598
2018-02-06T05:02:57.038Z,89.0329
2018-02-06T05:04:02.906Z,88.5309
2018-02-06T05:05:07.804Z,89.0329
2018-02-06T05:06:12.701Z,88.2772
2018-02-06T05:07:18.477Z,88.5309
2018-02-06T05:08:23.427Z,88.5309
2018-02-06T05:09:28.380Z,88.2772
2018-02-06T05:10:33.567Z,88.5309
2018-02-06T05:11:39.025Z,88.1108
2018-02-06T05:12:44.677Z,87.6061
2018-02-06T05:13:50.146Z,87.3551
2018-02-06T05:14:55.654Z,88.2772
2018-02-06T05:16:01.476Z,88.5309
2018-02-06T05:17:06.362Z,88.1108
2018-02-06T05:18:11.546Z,89.5376
2018-02-06T05:19:16.762Z,88.5309
2018-02-06T05:20:22.245Z,89.5376
2018-02-06T05:21:27.716Z,88.5309
2018-02-06T05:22:32.886Z,89.7887
2018-02-06T05:23:38.239Z,90.2933
2018-02-06T05:24:43.960Z,89.5376
2018-02-06T05:25:49.465Z,90.0423
2018-02-06T05:26:54.388Z,89.0329
2018-02-06T05:28:00.098Z,90.0423
2018-02-06T05:29:05.557Z,90.7135
2018-02-06T05:30:11.096Z,90.0423
2018-02-06T05:31:16.573Z,90.5443
2018-02-06T05:32:22.274Z,90.5443
2018-02-06T05:33:27.179Z,90.0423
2018-02-06T05:34:32.380Z,90.9645
2018-02-06T05:35:37.269Z,90.7135
2018-02-06T05:36:42.636Z,90.5443
2018-02-06T05:37:48.115Z,91.4692
2018-02-06T05:38:53.592Z,90.5443
2018-02-06T05:39:59.566Z,90.5443
2018-02-06T05:41:05.058Z,91.4692
2018-02-06T05:42:10.259Z,91.2181
2018-02-06T05:43:15.964Z,91.2181
2018-02-06T05:44:21.436Z,91.9738
2018-02-06T05:45:41.520Z,91.4692
2018-02-06T05:46:47.007Z,91.2181
2018-02-06T05:47:52.172Z,91.9738
2018-02-06T05:48:57.886Z,92.2249
2018-02-06T05:50:03.071Z,93.1497
2018-02-06T05:51:07.407Z,92.9806
2018-02-06T05:52:11.987Z,92.4759
2018-02-06T05:53:17.171Z,92.9806
2018-02-06T05:54:22.647Z,92.9806
2018-02-06T05:55:28.583Z,93.4007
2018-02-06T05:56:34.071Z,91.7202
2018-02-06T05:57:39.787Z,92.7296
2018-02-06T05:58:45.254Z,93.1497
2018-02-06T05:59:50.707Z,92.7296
2018-02-06T06:00:56.454Z,93.6517
2018-02-06T06:02:01.630Z,93.4007
2018-02-06T06:03:06.815Z,94.1564
2018-02-06T06:04:12.650Z,93.4007
2018-02-06T06:05:17.824Z,93.9054
2018-02-06T06:06:23.010Z,93.9054
2018-02-06T06:07:28.432Z,93.6517
2018-02-06T06:08:33.631Z,93.4007
2018-02-06T06:09:39.464Z,93.4007
2018-02-06T06:10:44.656Z,93.1497
2018-02-06T06:11:50.116Z,93.6517
2018-02-06T06:12:55.644Z,94.4074
2018-02-06T06:14:01.128Z,93.9054
2018-02-06T06:15:06.335Z,94.4074
2018-02-06T06:16:11.780Z,94.1564
2018-02-06T06:17:17.250Z,94.6611
2018-02-06T06:18:22.719Z,94.4074
2018-02-06T06:19:28.227Z,94.4074
2018-02-06T06:20:33.443Z,93.9054
2018-02-06T06:21:39.202Z,94.1564
2018-02-06T06:22:44.689Z,94.6611
2018-02-06T06:23:50.141Z,94.6611
2018-02-06T06:24:55.877Z,95.4168
2018-02-06T06:26:01.361Z,95.5859
2018-02-06T06:27:06.546Z,95.8369
2018-02-06T06:28:12.272Z,95.8369
2018-02-06T06:29:17.470Z,96.3416
2018-02-06T06:30:22.969Z,96.0879
2018-02-06T06:31:28.420Z,95.8369
2018-02-06T06:32:33.897Z,96.3416
2018-02-06T06:33:39.492Z,95.5859
2018-02-06T06:34:44.955Z,96.3416
2018-02-06T06:35:50.139Z,96.5926
2018-02-06T06:36:55.853Z,96.5926
2018-02-06T06:38:00.768Z,96.0879
2018-02-06T06:39:05.680Z,97.3483
2018-02-06T06:40:11.133Z,96.8463
2018-02-06T06:41:16.633Z,96.3416
2018-02-06T06:42:22.128Z,95.5859
2018-02-06T06:43:27.326Z,96.3416
2018-02-06T06:44:33.014Z,96.5926
2018-02-06T06:45:38.647Z,96.5926
2018-02-06T06:46:44.145Z,95.8369
2018-02-06T06:47:49.670Z,96.0879
2018-02-06T06:48:55.385Z,97.853
2018-02-06T06:50:00.855Z,96.8463
2018-02-06T06:51:05.777Z,96.8463
2018-02-06T06:52:11.704Z,97.3483
2018-02-06T06:53:16.875Z,98.0221
2018-02-06T06:54:22.347Z,97.3483
2018-02-06T06:55:28.130Z,97.3483
2018-02-06T06:56:33.592Z,97.602
2018-02-06T06:57:39.146Z,96.8463
2018-02-06T06:58:44.068Z,98.2731
2018-02-06T06:59:49.528Z,98.2731
2018-02-06T07:00:54.980Z,98.104
2018-02-06T07:01:59.904Z,97.0973
2018-02-06T07:03:05.085Z,97.3483
2018-02-06T07:04:10.532Z,97.0973
2018-02-06T07:05:15.725Z,97.602
2018-02-06T07:06:20.908Z,96.8463
2018-02-06T07:07:26.347Z,97.0973
2018-02-06T07:08:31.811Z,98.2731
2018-02-06T07:09:36.706Z,98.104
2018-02-06T07:10:42.179Z,97.602
2018-02-06T07:11:47.376Z,97.3483
2018-02-06T07:12:52.854Z,98.2731
2018-02-06T07:13:57.758Z,98.2731
2018-02-06T07:15:03.226Z,96.8463
2018-02-06T07:16:08.206Z,98.0221
2018-02-06T07:17:13.672Z,98.2731
2018-02-06T07:18:18.863Z,97.853
2018-02-06T07:19:24.676Z,98.0221
2018-02-06T07:20:29.288Z,98.6933
2018-02-06T07:21:34.828Z,98.6933
2018-02-06T07:22:40.284Z,98.5242
2018-02-06T07:23:45.492Z,98.6933
2018-02-06T07:24:50.934Z,98.5242
2018-02-06T07:25:56.342Z,98.9443
2018-02-06T07:27:01.856Z,98.9443
2018-02-06T07:28:07.666Z,98.6933
2018-02-06T07:29:12.855Z,99.1979
2018-02-06T07:30:18.315Z,98.9443
2018-02-06T07:31:23.730Z,99.449
2018-02-06T07:32:29.356Z,99.449
2018-02-06T07:33:35.170Z,99.449
2018-02-06T07:34:40.105Z,99.1979
2018-02-06T07:35:45.597Z,99.7026
2018-02-06T07:36:51.093Z,100.2073
2018-02-06T07:37:56.291Z,99.7026
2018-02-06T07:39:01.741Z,99.9537
2018-02-06T07:40:07.021Z,99.1979
2018-02-06T07:41:11.967Z,99.7026
2018-02-06T07:42:17.478Z,99.1979
2018-02-06T07:43:23.297Z,99.449
2018-02-06T07:44:28.221Z,98.5242
2018-02-06T07:45:33.834Z,99.7026
2018-02-06T07:46:38.452Z,99.449
2018-02-06T07:47:43.914Z,99.449
2018-02-06T07:48:49.752Z,99.7026
2018-02-06T07:49:55.200Z,99.9537
2018-02-06T07:51:00.120Z,99.1979
2018-02-06T07:52:04.720Z,100.2073
2018-02-06T07:53:09.303Z,100.2073
2018-02-06T07:54:14.814Z,100.6274
2018-02-06T07:55:20.243Z,100.2073
2018-02-06T07:56:25.420Z,100.4583
2018-02-06T07:57:30.828Z,101.3831
2018-02-06T07:58:36.288Z,100.8785
2018-02-06T07:59:41.772Z,99.9537
2018-02-06T08:00:46.919Z,100.6274
2018-02-06T08:01:52.109Z,99.9537
2018-02-06T08:02:57.340Z,100.8785
2018-02-06T08:04:02.808Z,100.6274
2018-02-06T08:05:07.735Z,100.6274
2018-02-06T08:06:13.253Z,100.4583
2018-02-06T08:07:18.973Z,100.6274
2018-02-06T08:08:24.441Z,100.4583
2018-02-06T08:09:29.772Z,100.2073
2018-02-06T08:10:34.958Z,100.3738
2018-02-06T08:11:40.448Z,100.8785
2018-02-06T08:12:45.655Z,100.3738
2018-02-06T08:13:51.118Z,100.2073
2018-02-06T08:14:56.582Z,101.3831
2018-02-06T08:16:01.972Z,101.3831
2018-02-06T08:17:07.062Z,101.8878
2018-02-06T08:18:11.711Z,101.1295
2018-02-06T08:19:17.148Z,100.8785
2018-02-06T08:20:22.060Z,100.8785
2018-02-06T08:21:27.424Z,101.6342
2018-02-06T08:22:32.611Z,101.1295
2018-02-06T08:23:37.505Z,101.3831
2018-02-06T08:24:43.153Z,101.1295
2018-02-06T08:25:48.597Z,101.1295
2018-02-06T08:26:54.056Z,100.8785
2018-02-06T08:27:59.866Z,101.1295
2018-02-06T08:29:05.362Z,101.8878
2018-02-06T08:30:10.537Z,101.3831
2018-02-06T08:31:15.730Z,100.8785
2018-02-06T08:32:20.619Z,101.1295
2018-02-06T08:33:40.709Z,101.1295
2018-02-06T08:34:46.171Z,102.3925
2018-02-06T08:35:51.376Z,101.8878
2018-02-06T08:36:56.835Z,101.8878
2018-02-06T08:38:02.324Z,101.3831
2018-02-06T08:39:07.520Z,101.6342
2018-02-06T08:40:13.006Z,101.6342
2018-02-06T08:41:18.489Z,101.8878
2018-02-06T08:42:24.057Z,102.1388
2018-02-06T08:43:44.159Z,102.6435
2018-02-06T08:44:49.906Z,102.3925
2018-02-06T08:45:55.635Z,101.3831
2018-02-06T08:47:01.136Z,102.3925
2018-02-06T08:48:06.597Z,102.8972
2018-02-06T08:49:12.152Z,102.8972
2018-02-06T08:50:17.621Z,102.3925
2018-02-06T08:51:22.806Z,102.3925
2018-02-06T08:52:28.622Z,102.8972
2018-02-06T08:53:34.100Z,103.822
2018-02-06T08:54:39.724Z,104.073
2018-02-06T08:55:44.905Z,104.073
2018-02-06T08:56:49.522Z,104.5777
2018-02-06T08:57:55.452Z,103.5683
2018-02-06T08:59:00.622Z,103.5683
2018-02-06T09:00:05.819Z,104.073
2018-02-06T09:01:11.250Z,103.5683
2018-02-06T09:02:16.429Z,105.9226
2018-02-06T09:03:21.635Z,103.5683
2018-02-06T09:04:27.007Z,105.5025
2018-02-06T09:05:31.913Z,104.324
2018-02-06T09:06:37.196Z,104.9978
2018-02-06T09:07:42.097Z,104.9978
2018-02-06T09:08:46.989Z,105.2489
2018-02-06T09:09:52.149Z,105.9226
2018-02-06T09:10:57.644Z,105.9226
2018-02-06T09:12:02.829Z,105.6716
2018-02-06T09:13:07.779Z,104.9978
2018-02-06T09:14:12.963Z,104.9978
2018-02-06T09:15:18.180Z,104.9978
2018-02-06T09:16:23.736Z,105.2489
2018-02-06T09:17:29.280Z,105.5025
2018-02-06T09:18:34.227Z,105.5025
2018-02-06T09:19:39.411Z,105.9226
2018-02-06T09:20:45.275Z,104.9978
2018-02-06T09:21:51.091Z,104.9978
2018-02-06T09:22:56.554Z,105.5025
2018-02-06T09:24:02.245Z,106.4273
2018-02-06T09:25:08.009Z,106.4273
2018-02-06T09:26:12.913Z,106.4273
2018-02-06T09:27:18.133Z,105.9226
2018-02-06T09:28:23.292Z,105.9226
2018-02-06T09:29:28.383Z,106.681
2018-02-06T09:30:34.102Z,107.1857
2018-02-06T09:31:39.048Z,107.4367
2018-02-06T09:32:44.529Z,106.4273
2018-02-06T09:33:50.024Z,106.4273
2018-02-06T09:34:55.197Z,107.1857
2018-02-06T09:36:00.665Z,107.4367
2018-02-06T09:37:06.098Z,107.1857
2018-02-06T09:38:11.283Z,107.9414
2018-02-06T09:39:16.771Z,107.6877
2018-02-06T09:40:22.204Z,107.4367
2018-02-06T09:41:27.719Z,107.4367
2018-02-06T09:42:32.891Z,107.1857
2018-02-06T09:43:37.504Z,107.9414
2018-02-06T09:44:42.689Z,107.9414
2018-02-06T09:45:48.399Z,107.4367
2018-02-06T09:46:53.876Z,108.1105
2018-02-06T09:47:59.374Z,106.932
2018-02-06T09:49:05.186Z,108.1105
2018-02-06T09:50:09.821Z,107.9414
2018-02-06T09:51:15.020Z,107.4367
2018-02-06T09:52:20.593Z,107.4367
2018-02-06T09:53:25.786Z,108.3615
2018-02-06T09:54:31.603Z,107.4367
2018-02-06T09:55:36.796Z,106.681
2018-02-06T09:56:41.985Z,107.6877
2018-02-06T09:57:47.697Z,107.4367
2018-02-06T09:58:52.640Z,106.4273
2018-02-06T09:59:58.098Z,106.932
2018-02-06T10:01:03.648Z,105.9226
2018-02-06T10:02:08.541Z,106.681
2018-02-06T10:03:14.052Z,106.1763
2018-02-06T10:04:19.542Z,107.1857
2018-02-06T10:05:24.759Z,107.1857
2018-02-06T10:06:30.309Z,107.6877
2018-02-06T10:07:35.510Z,107.1857
2018-02-06T10:08:40.690Z,107.6877
2018-02-06T10:09:46.164Z,107.6877
2018-02-06T10:10:51.646Z,107.6877
2018-02-06T10:11:57.132Z,108.1105
2018-02-06T10:13:02.843Z,108.1105
2018-02-06T10:14:08.025Z,107.9414
2018-02-06T10:15:13.270Z,107.6877
2018-02-06T10:16:18.393Z,108.3615
2018-02-06T10:17:23.654Z,107.6877
2018-02-06T10:18:29.262Z,107.6877
2018-02-06T10:19:34.724Z,108.3615
2018-02-06T10:20:39.342Z,108.6152
2018-02-06T10:21:44.645Z,107.6877
2018-02-06T10:22:49.747Z,109.3709
2018-02-06T10:23:55.210Z,108.8662
2018-02-06T10:25:00.640Z,109.3709
2018-02-06T10:26:05.556Z,108.6152
2018-02-06T10:27:10.702Z,108.3615
2018-02-06T10:28:16.575Z,108.8662
2018-02-06T10:29:22.215Z,108.1105
2018-02-06T10:30:27.946Z,109.6245
2018-02-06T10:31:33.394Z,109.1199
2018-02-06T10:32:38.863Z,108.6152
2018-02-06T10:33:44.011Z,108.8662
2018-02-06T10:34:49.116Z,109.3709
2018-02-06T10:35:54.562Z,109.3709
2018-02-06T10:36:59.987Z,109.3709
2018-02-06T10:38:05.451Z,109.8756
2018-02-06T10:39:10.629Z,109.8756
2018-02-06T10:40:16.195Z,110.3802
2018-02-06T10:41:20.829Z,109.6245
2018-02-06T10:42:40.913Z,110.1292
2018-02-06T10:43:46.383Z,110.1292
2018-02-06T10:44:51.003Z,110.1292
2018-02-06T10:45:56.719Z,110.5493
2018-02-06T10:47:02.180Z,111.054
2018-02-06T10:48:07.369Z,110.1292
2018-02-06T10:49:12.356Z,111.5587
2018-02-06T10:50:17.880Z,111.3051
2018-02-06T10:51:23.332Z,112.0634
2018-02-06T10:52:29.079Z,112.0634
2018-02-06T10:53:34.738Z,111.054
2018-02-06T10:54:40.449Z,111.5587
2018-02-06T10:55:45.641Z,111.054
2018-02-06T10:56:50.794Z,111.8124
2018-02-06T10:57:56.246Z,111.5587
2018-02-06T10:59:01.421Z,111.3051
2018-02-06T11:00:06.633Z,110.803
2018-02-06T11:01:12.160Z,110.5493
2018-02-06T11:02:17.040Z,111.5587
2018-02-06T11:03:22.520Z,111.8124
2018-02-06T11:04:28.088Z,111.3051
2018-02-06T11:05:33.266Z,111.054
2018-02-06T11:06:38.704Z,112.0634
2018-02-06T11:07:43.634Z,110.803
2018-02-06T11:08:48.817Z,111.8124
2018-02-06T11:09:53.954Z,111.3051
2018-02-06T11:10:59.179Z,112.0634
2018-02-06T11:12:03.792Z,111.8124
2018-02-06T11:13:08.934Z,111.5587
2018-02-06T11:14:14.099Z,112.3171
2018-02-06T11:15:19.560Z,111.054
2018-02-06T11:16:24.782Z,110.803
2018-02-06T11:17:30.258Z,111.8124
2018-02-06T11:18:36.011Z,112.0634
2018-02-06T11:19:41.462Z,111.8124
2018-02-06T11:20:46.627Z,112.5681
2018-02-06T11:21:52.277Z,112.9882
2018-02-06T11:22:57.468Z,112.5681
2018-02-06T11:24:02.374Z,112.8217
2018-02-06T11:25:08.099Z,112.8217
2018-02-06T11:26:13.584Z,113.2419
2018-02-06T11:27:18.787Z,113.4929
2018-02-06T11:28:24.231Z,112.8217
2018-02-06T11:29:29.691Z,112.9882
2018-02-06T11:30:35.414Z,113.9157
2018-02-06T11:31:40.309Z,113.2419
2018-02-06T11:32:45.798Z,113.662
2018-02-06T11:33:51.499Z,113.662
2018-02-06T11:34:56.673Z,114.1667
2018-02-06T11:36:02.136Z,113.2419
2018-02-06T11:37:07.546Z,114.1667
2018-02-06T11:38:12.837Z,114.4203
2018-02-06T11:39:18.016Z,113.9157
2018-02-06T11:40:23.192Z,113.2419
2018-02-06T11:41:28.380Z,113.662
2018-02-06T11:42:33.625Z,113.4929
2018-02-06T11:43:38.801Z,114.4203
2018-02-06T11:44:43.684Z,114.4203
2018-02-06T11:45:49.410Z,113.662
2018-02-06T11:46:54.316Z,114.6714
2018-02-06T11:47:59.499Z,113.662
2018-02-06T11:49:05.216Z,115.1787
2018-02-06T11:50:10.415Z,113.9157
2018-02-06T11:51:16.075Z,114.6714
2018-02-06T11:52:21.503Z,114.925
2018-02-06T11:53:26.668Z,115.1787
2018-02-06T11:54:32.121Z,115.5988
2018-02-06T11:55:37.579Z,114.6714
2018-02-06T11:56:42.491Z,114.925
2018-02-06T11:57:48.328Z,115.1787
2018-02-06T11:58:53.515Z,115.8498
2018-02-06T11:59:58.704Z,114.925
2018-02-06T12:01:04.463Z,115.4297
2018-02-06T12:02:10.255Z,115.1787
2018-02-06T12:03:15.451Z,114.925
2018-02-06T12:04:21.145Z,116.6082
2018-02-06T12:05:26.043Z,116.1035
2018-02-06T12:06:31.732Z,115.5988
2018-02-06T12:07:37.186Z,115.8498
2018-02-06T12:08:42.660Z,116.3572
2018-02-06T12:09:48.471Z,117.1129
2018-02-06T12:10:53.362Z,116.8618
2018-02-06T12:11:58.817Z,116.6082
2018-02-06T12:13:03.696Z,116.1035
2018-02-06T12:14:08.846Z,116.6082
2018-02-06T12:15:13.457Z,116.3572
2018-02-06T12:16:18.719Z,117.1129
2018-02-06T12:17:23.909Z,116.3572
2018-02-06T12:18:29.337Z,116.3572
2018-02-06T12:19:34.790Z,117.6176
2018-02-06T12:20:39.969Z,117.6176
2018-02-06T12:21:44.951Z,117.1129
2018-02-06T12:22:50.123Z,118.0403
2018-02-06T12:23:55.328Z,118.545
2018-02-06T12:25:00.776Z,118.7987
2018-02-06T12:26:05.967Z,119.0497
2018-02-06T12:27:10.858Z,118.0403
2018-02-06T12:28:16.569Z,118.0403
2018-02-06T12:29:21.762Z,118.545
2018-02-06T12:30:27.317Z,119.0497
2018-02-06T12:31:32.503Z,118.0403
2018-02-06T12:32:37.965Z,118.545
2018-02-06T12:33:43.378Z,119.3034
2018-02-06T12:34:48.566Z,119.0497
2018-02-06T12:35:53.466Z,120.3127
2018-02-06T12:36:58.899Z,120.7328
2018-02-06T12:38:04.364Z,120.5664
2018-02-06T12:39:09.827Z,121.4912
2018-02-06T12:40:14.985Z,120.5664
2018-02-06T12:41:20.431Z,120.9865
2018-02-06T12:42:40.909Z,121.2402
2018-02-06T12:43:46.342Z,121.2402
2018-02-06T12:44:51.521Z,120.9865
2018-02-06T12:45:56.960Z,120.7328
2018-02-06T12:47:02.139Z,121.4912
2018-02-06T12:48:07.591Z,121.2402
2018-02-06T12:49:13.481Z,120.7328
2018-02-06T12:50:18.950Z,120.9865
2018-02-06T12:51:39.227Z,120.7328
2018-02-06T12:52:44.412Z,121.4912
2018-02-06T12:53:49.575Z,120.9865
2018-02-06T12:54:54.995Z,122.2495
2018-02-06T12:56:00.447Z,122.2495
2018-02-06T12:57:05.636Z,122.5032
2018-02-06T12:58:11.344Z,122.5032
2018-02-06T12:59:16.233Z,122.2495
2018-02-06T13:00:21.701Z,122.5032
2018-02-06T13:01:27.346Z,123.0079
2018-02-06T13:02:32.503Z,123.428
2018-02-06T13:03:38.428Z,123.0079
2018-02-06T13:04:43.899Z,123.428
2018-02-06T13:05:49.373Z,122.7542
2018-02-06T13:06:55.100Z,123.0079
2018-02-06T13:08:00.567Z,123.428
2018-02-06T13:09:05.742Z,123.0079
2018-02-06T13:10:11.437Z,123.0079
2018-02-06T13:11:16.899Z,123.428
2018-02-06T13:12:21.798Z,123.0079
2018-02-06T13:13:27.072Z,123.177
2018-02-06T13:14:32.550Z,123.177
2018-02-06T13:15:37.951Z,123.428
2018-02-06T13:16:43.410Z,122.5032
2018-02-06T13:17:48.294Z,123.177
2018-02-06T13:18:53.710Z,123.428
2018-02-06T13:19:58.335Z,123.0079
2018-02-06T13:21:03.491Z,123.9353
2018-02-06T13:22:08.927Z,123.177
2018-02-06T13:23:14.680Z,123.9353
2018-02-06T13:24:20.136Z,124.44
2018-02-06T13:25:25.238Z,123.9353
2018-02-06T13:26:30.155Z,124.44
2018-02-06T13:27:35.657Z,123.9353
2018-02-06T13:28:41.116Z,123.9353
2018-02-06T13:29:45.736Z,124.1864
2018-02-06T13:30:51.749Z,124.9447
2018-02-06T13:31:57.230Z,124.9447
2018-02-06T13:33:02.404Z,124.9447
2018-02-06T13:34:07.830Z,124.6937
2018-02-06T13:35:13.284Z,124.9447
2018-02-06T13:36:18.780Z,123.9353
2018-02-06T13:37:24.473Z,124.44
2018-02-06T13:38:29.652Z,124.1864
2018-02-06T13:39:35.350Z,124.9447
2018-02-06T13:40:40.797Z,124.9447
2018-02-06T13:41:46.261Z,125.7876
2018-02-06T13:42:51.704Z,125.452
2018-02-06T13:43:57.212Z,126.0413
2018-02-06T13:45:02.691Z,125.7876
2018-02-06T13:46:08.567Z,125.7876
2018-02-06T13:47:14.024Z,125.7876
2018-02-06T13:48:18.924Z,126.2949
2018-02-06T13:49:24.629Z,126.0413
2018-02-06T13:50:29.543Z,126.7996
2018-02-06T13:51:35.549Z,126.7996
2018-02-06T13:52:40.726Z,127.558
2018-02-06T13:53:46.396Z,126.2949
2018-02-06T13:54:52.143Z,126.7996
2018-02-06T13:55:57.585Z,127.558
2018-02-06T13:57:03.035Z,128.0626
2018-02-06T13:58:08.464Z,127.809
2018-02-06T13:59:13.911Z,127.558
2018-02-06T14:00:19.362Z,127.3043
2018-02-06T14:01:24.906Z,128.7364
2018-02-06T14:02:29.804Z,128.4854
2018-02-06T14:03:35.276Z,128.3163
2018-02-06T14:04:40.746Z,128.7364
2018-02-06T14:05:46.202Z,128.7364
2018-02-06T14:06:51.764Z,129.9176
2018-02-06T14:07:56.416Z,128.9055
2018-02-06T14:09:02.265Z,128.9055
2018-02-06T14:10:07.994Z,128.4854
2018-02-06T14:11:13.449Z,128.7364
2018-02-06T14:12:18.924Z,128.9055
2018-02-06T14:13:24.238Z,128.9055
2018-02-06T14:14:29.441Z,128.9055
2018-02-06T14:15:35.394Z,128.7364
2018-02-06T14:16:40.298Z,128.0626
2018-02-06T14:17:45.479Z,128.0626
2018-02-06T14:18:50.713Z,128.3163
2018-02-06T14:19:55.818Z,128.0626
2018-02-06T14:21:01.008Z,129.1592
2018-02-06T14:22:06.478Z,128.4854
2018-02-06T14:23:11.658Z,128.4854
2018-02-06T14:24:17.120Z,129.1592
2018-02-06T14:25:22.349Z,129.1592
2018-02-06T14:26:27.258Z,129.1592
2018-02-06T14:27:32.694Z,129.4102
2018-02-06T14:28:37.294Z,129.4102
2018-02-06T14:29:42.499Z,129.9176
2018-02-06T14:30:48.198Z,129.9176
2018-02-06T14:31:53.673Z,129.6639
2018-02-06T14:32:59.142Z,130.1712
2018-02-06T14:34:04.955Z,130.1712
2018-02-06T14:35:10.431Z,130.6759
2018-02-06T14:36:15.040Z,131.0987
2018-02-06T14:37:20.762Z,131.3497
2018-02-06T14:38:25.943Z,131.0987
2018-02-06T14:39:30.796Z,130.845
2018-02-06T14:40:36.262Z,131.6033
2018-02-06T14:41:41.714Z,131.6033
2018-02-06T14:42:46.736Z,130.4222
2018-02-06T14:43:52.227Z,131.3497
2018-02-06T14:44:57.432Z,130.845
2018-02-06T14:46:02.861Z,131.857
2018-02-06T14:47:08.037Z,130.6759
2018-02-06T14:48:13.212Z,130.4222
2018-02-06T14:49:19.242Z,129.9176
2018-02-06T14:50:24.741Z,130.845
2018-02-06T14:51:30.187Z,131.0987
2018-02-06T14:52:35.649Z,130.845
2018-02-06T14:53:41.129Z,130.845
2018-02-06T14:54:46.661Z,130.6759
2018-02-06T14:55:52.162Z,130.845
2018-02-06T14:56:57.351Z,131.3497
2018-02-06T14:58:03.032Z,130.6759
2018-02-06T14:59:07.938Z,131.3497
2018-02-06T15:00:13.402Z,131.0987